createdAt,value
2018-05-03T00:01:08.176Z,13.44
2018-05-03T00:03:35.595Z,13.37
2018-05-03T00:06:02.991Z,13.32
2018-05-03T00:08:30.405Z,13.27
2018-05-03T00:10:57.812Z,13.21
2018-05-03T00:13:25.226Z,13.13
2018-05-03T00:15:52.641Z,13.07
2018-05-03T00:18:20.139Z,13.04
2018-05-03T00:20:47.462Z,13.01
2018-05-03T00:23:14.875Z,12.99
2018-05-03T00:25:42.283Z,12.94
2018-05-03T00:28:09.694Z,12.91
2018-05-03T00:30:37.104Z,12.87
2018-05-03T00:33:04.508Z,12.85
2018-05-03T00:35:31.926Z,12.82
2018-05-03T00:37:59.329Z,12.79
2018-05-03T00:40:26.743Z,12.78
2018-05-03T00:42:54.148Z,12.73
2018-05-03T00:45:21.566Z,12.70
2018-05-03T00:47:48.972Z,12.69
2018-05-03T00:50:16.394Z,12.68
2018-05-03T00:52:43.800Z,12.67
2018-05-03T00:55:11.216Z,12.65
2018-05-03T00:57:38.628Z,12.63
2018-05-03T01:00:06.054Z,12.60
2018-05-03T01:02:33.466Z,12.58
2018-05-03T01:05:00.881Z,12.56
2018-05-03T01:07:28.288Z,12.55
2018-05-03T01:09:55.712Z,12.53
2018-05-03T01:12:23.121Z,12.52
2018-05-03T01:14:50.541Z,12.49
2018-05-03T01:17:17.940Z,12.46
2018-05-03T01:19:45.357Z,12.45
2018-05-03T01:22:12.769Z,12.45
2018-05-03T01:24:40.189Z,12.43
2018-05-03T01:27:07.621Z,12.42
2018-05-03T01:29:35.034Z,12.41
2018-05-03T01:32:02.444Z,12.39
2018-05-03T01:34:29.853Z,12.36
2018-05-03T01:36:57.260Z,12.33
2018-05-03T01:39:24.684Z,12.30
2018-05-03T01:41:52.097Z,12.27
2018-05-03T01:44:19.524Z,12.23
2018-05-03T01:46:46.916Z,12.21
2018-05-03T01:49:14.335Z,12.17
2018-05-03T01:51:41.736Z,12.13
2018-05-03T01:54:09.156Z,12.08
2018-05-03T01:56:36.573Z,12.04
2018-05-03T01:59:03.988Z,11.99
2018-05-03T02:01:31.396Z,11.94
2018-05-03T02:03:58.796Z,11.90
2018-05-03T02:06:26.215Z,11.87
2018-05-03T02:08:53.616Z,11.83
2018-05-03T02:11:21.027Z,11.79
2018-05-03T02:13:48.431Z,11.74
2018-05-03T02:16:15.844Z,11.69
2018-05-03T02:18:43.253Z,11.66
2018-05-03T02:21:10.664Z,11.62
2018-05-03T02:23:38.069Z,11.60
2018-05-03T02:26:05.480Z,11.57
2018-05-03T02:28:32.883Z,11.52
2018-05-03T02:31:00.307Z,11.50
2018-05-03T02:33:27.706Z,11.47
2018-05-03T02:35:55.116Z,11.43
2018-05-03T02:38:22.554Z,11.39
2018-05-03T02:40:49.945Z,11.35
2018-05-03T02:43:17.349Z,11.28
2018-05-03T02:45:44.756Z,11.23
2018-05-03T02:48:12.160Z,11.22
2018-05-03T02:50:39.581Z,11.19
2018-05-03T02:53:06.988Z,11.15
2018-05-03T02:55:34.408Z,11.10
2018-05-03T02:58:18.591Z,11.07
2018-05-03T03:01:03.640Z,11.03
2018-05-03T03:03:48.526Z,10.98
2018-05-03T03:06:33.621Z,10.93
2018-05-03T03:09:18.608Z,10.87
2018-05-03T03:11:57.629Z,10.82
2018-05-03T03:14:42.680Z,10.75
2018-05-03T03:17:27.579Z,10.73
2018-05-03T03:20:12.660Z,10.68
2018-05-03T03:22:57.635Z,10.63
2018-05-03T03:28:54.877Z,10.55
2018-05-03T03:31:39.925Z,10.54
2018-05-03T03:34:17.961Z,10.53
2018-05-03T03:40:01.836Z,10.49
2018-05-03T03:45:44.183Z,10.47
2018-05-03T03:48:11.589Z,10.47
2018-05-03T03:50:38.998Z,10.47
2018-05-03T03:53:06.503Z,10.45
2018-05-03T03:55:33.825Z,10.45
2018-05-03T03:58:01.238Z,10.45
2018-05-03T04:00:28.655Z,10.47
2018-05-03T04:02:56.064Z,10.47
2018-05-03T04:05:23.481Z,10.44
2018-05-03T04:07:50.895Z,10.48
2018-05-03T04:10:18.300Z,10.55
2018-05-03T04:12:45.716Z,10.61
2018-05-03T04:15:13.120Z,10.68
2018-05-03T04:17:52.325Z,10.72
2018-05-03T04:20:40.224Z,10.77
2018-05-03T04:23:19.568Z,10.89
2018-05-03T04:25:58.737Z,11.00
2018-05-03T04:28:26.144Z,11.09
2018-05-03T04:30:53.552Z,11.18
2018-05-03T04:33:20.994Z,11.29
2018-05-03T04:35:48.409Z,11.38
2018-05-03T04:38:15.812Z,11.48
2018-05-03T04:40:43.232Z,11.58
2018-05-03T04:43:10.642Z,11.68
2018-05-03T04:45:38.060Z,11.78
2018-05-03T04:48:05.488Z,11.90
2018-05-03T04:50:32.901Z,11.99
2018-05-03T04:53:00.305Z,12.11
2018-05-03T04:55:27.724Z,12.15
2018-05-03T04:57:55.136Z,12.18
2018-05-03T05:00:22.577Z,12.20
2018-05-03T05:02:49.984Z,12.24
2018-05-03T05:05:17.390Z,12.33
2018-05-03T05:07:44.802Z,12.42
2018-05-03T05:10:12.212Z,12.48
2018-05-03T05:12:39.624Z,12.53
2018-05-03T05:15:07.041Z,12.57
2018-05-03T05:17:34.448Z,12.51
2018-05-03T05:20:01.868Z,12.46
2018-05-03T05:22:29.272Z,12.36
2018-05-03T05:24:56.688Z,12.34
2018-05-03T05:27:24.088Z,12.28
2018-05-03T05:29:51.496Z,12.21
2018-05-03T05:32:18.938Z,12.22
2018-05-03T05:34:46.388Z,12.20
2018-05-03T05:37:13.740Z,12.20
2018-05-03T05:39:41.173Z,12.21
2018-05-03T05:42:08.596Z,12.27
2018-05-03T05:44:36.008Z,12.36
2018-05-03T05:47:03.427Z,12.40
2018-05-03T05:49:30.832Z,12.42
2018-05-03T05:51:58.249Z,12.40
2018-05-03T05:54:25.648Z,12.40
2018-05-03T05:56:53.061Z,12.34
2018-05-03T05:59:20.477Z,12.37
2018-05-03T06:01:47.899Z,12.49
2018-05-03T06:04:15.313Z,12.57
2018-05-03T06:06:42.724Z,12.61
2018-05-03T06:09:10.138Z,12.61
2018-05-03T06:11:37.548Z,12.67
2018-05-03T06:14:04.955Z,12.77
2018-05-03T06:16:32.375Z,12.81
2018-05-03T06:18:59.785Z,12.81
2018-05-03T06:21:27.201Z,12.84
2018-05-03T06:23:54.607Z,12.86
2018-05-03T06:26:22.024Z,12.92
2018-05-03T06:28:49.434Z,12.97
2018-05-03T06:31:16.869Z,13.00
2018-05-03T06:33:44.276Z,13.04
2018-05-03T06:36:11.676Z,13.13
2018-05-03T06:38:39.094Z,13.12
2018-05-03T06:41:06.500Z,13.22
2018-05-03T06:43:33.912Z,13.36
2018-05-03T06:46:01.322Z,13.42
2018-05-03T06:48:28.738Z,13.27
2018-05-03T06:50:56.137Z,13.20
2018-05-03T06:53:23.548Z,13.22
2018-05-03T06:55:50.965Z,13.26
2018-05-03T06:58:18.385Z,13.29
2018-05-03T07:00:45.787Z,13.27
2018-05-03T07:03:13.208Z,13.26
2018-05-03T07:05:40.612Z,13.28
2018-05-03T07:08:08.024Z,13.34
2018-05-03T07:10:35.437Z,13.41
2018-05-03T07:13:02.865Z,13.39
2018-05-03T07:15:30.268Z,13.40
2018-05-03T07:17:57.694Z,13.44
2018-05-03T07:20:25.096Z,13.68
2018-05-03T07:22:52.541Z,13.91
2018-05-03T07:25:19.952Z,13.94
2018-05-03T07:27:47.366Z,14.02
2018-05-03T07:30:14.768Z,14.18
2018-05-03T07:32:42.180Z,14.40
2018-05-03T07:35:09.589Z,14.43
2018-05-03T07:37:37.005Z,14.35
2018-05-03T07:40:04.413Z,14.36
2018-05-03T07:42:31.824Z,14.51
2018-05-03T07:44:59.236Z,14.69
2018-05-03T07:47:26.670Z,14.83
2018-05-03T07:49:54.074Z,15.08
2018-05-03T07:52:21.491Z,15.29
2018-05-03T07:54:48.892Z,15.29
2018-05-03T07:57:16.309Z,15.31
2018-05-03T07:59:43.727Z,15.50
2018-05-03T08:02:11.150Z,15.67
2018-05-03T08:04:38.540Z,15.93
2018-05-03T08:07:05.952Z,16.25
2018-05-03T08:09:33.368Z,16.64
2018-05-03T08:12:00.773Z,16.82
2018-05-03T08:14:28.189Z,17.08
2018-05-03T08:16:55.598Z,17.36
2018-05-03T08:19:23.028Z,17.59
2018-05-03T08:21:50.448Z,17.93
2018-05-03T08:24:17.882Z,18.32
2018-05-03T08:26:45.280Z,18.60
2018-05-03T08:29:12.700Z,18.79
2018-05-03T08:31:40.158Z,18.95
2018-05-03T08:34:07.541Z,19.09
2018-05-03T08:36:35.006Z,19.30
2018-05-03T08:39:02.450Z,19.24
2018-05-03T08:41:29.903Z,19.34
2018-05-03T08:43:57.332Z,19.48
2018-05-03T08:46:24.732Z,19.82
2018-05-03T08:48:52.188Z,19.93
2018-05-03T08:51:19.622Z,20.11
2018-05-03T08:53:47.041Z,20.38
2018-05-03T08:56:14.445Z,20.49
2018-05-03T08:58:41.880Z,20.81
2018-05-03T09:01:09.307Z,20.99
2018-05-03T09:03:36.741Z,21.05
2018-05-03T09:06:04.153Z,21.26
2018-05-03T09:08:31.572Z,21.37
2018-05-03T09:10:58.980Z,21.46
2018-05-03T09:13:26.402Z,21.66
2018-05-03T09:15:53.813Z,22.03
2018-05-03T09:18:21.238Z,22.24
2018-05-03T09:20:48.649Z,22.33
2018-05-03T09:23:16.074Z,22.39
2018-05-03T09:25:43.489Z,22.50
2018-05-03T09:28:10.904Z,22.64
2018-05-03T09:30:38.312Z,22.92
2018-05-03T09:33:05.744Z,23.07
2018-05-03T09:35:33.162Z,23.17
2018-05-03T09:38:00.576Z,23.16
2018-05-03T09:40:28.002Z,22.77
2018-05-03T09:42:55.416Z,22.49
2018-05-03T09:45:22.836Z,22.39
2018-05-03T09:47:50.259Z,22.67
2018-05-03T09:50:17.707Z,22.92
2018-05-03T09:52:45.149Z,23.14
2018-05-03T09:55:12.561Z,23.23
2018-05-03T09:57:39.978Z,23.01
2018-05-03T10:00:07.400Z,22.85
2018-05-03T10:02:34.817Z,23.13
2018-05-03T10:05:02.255Z,23.42
2018-05-03T10:07:29.672Z,23.68
2018-05-03T10:09:57.089Z,23.84
2018-05-03T10:12:24.504Z,23.63
2018-05-03T10:14:51.936Z,23.88
2018-05-03T10:17:19.364Z,23.81
2018-05-03T10:19:46.793Z,23.34
2018-05-03T10:22:14.208Z,23.48
2018-05-03T10:24:41.632Z,23.73
2018-05-03T10:27:09.055Z,23.67
2018-05-03T10:29:36.476Z,23.79
2018-05-03T10:32:03.892Z,23.89
2018-05-03T10:34:31.328Z,24.00
2018-05-03T10:36:58.744Z,23.98
2018-05-03T10:39:26.165Z,23.72
2018-05-03T10:41:53.621Z,23.33
2018-05-03T10:44:21.005Z,23.19
2018-05-03T10:46:48.419Z,23.26
2018-05-03T10:49:15.841Z,23.19
2018-05-03T10:51:43.256Z,23.04
2018-05-03T10:54:10.676Z,22.69
2018-05-03T10:56:38.104Z,22.33
2018-05-03T10:59:05.524Z,22.26
2018-05-03T11:01:32.940Z,22.57
2018-05-03T11:04:00.356Z,23.01
2018-05-03T11:06:27.765Z,23.32
2018-05-03T11:08:55.205Z,23.09
2018-05-03T11:11:22.620Z,22.80
2018-05-03T11:13:50.037Z,22.27
2018-05-03T11:16:17.460Z,22.30
2018-05-03T11:18:44.866Z,22.59
2018-05-03T11:21:12.292Z,22.32
2018-05-03T11:23:39.703Z,22.30
2018-05-03T11:26:07.131Z,22.61
2018-05-03T11:28:34.544Z,22.86
2018-05-03T11:31:01.968Z,23.13
2018-05-03T11:33:29.377Z,23.14
2018-05-03T11:35:56.793Z,23.23
2018-05-03T11:38:24.210Z,23.51
2018-05-03T11:40:51.629Z,23.50
2018-05-03T11:43:19.037Z,23.48
2018-05-03T11:45:46.468Z,23.76
2018-05-03T11:48:13.880Z,23.88
2018-05-03T11:50:41.305Z,23.82
2018-05-03T11:53:08.729Z,23.54
2018-05-03T11:55:36.225Z,23.10
2018-05-03T11:58:03.569Z,22.91
2018-05-03T12:00:30.988Z,22.98
2018-05-03T12:02:58.409Z,23.09
2018-05-03T12:05:25.826Z,23.14
2018-05-03T12:07:53.239Z,22.98
2018-05-03T12:10:20.665Z,23.02
2018-05-03T12:12:48.072Z,23.29
2018-05-03T12:15:15.492Z,23.57
2018-05-03T12:17:42.912Z,23.59
2018-05-03T12:20:10.362Z,23.52
2018-05-03T12:22:37.781Z,23.58
2018-05-03T12:25:05.201Z,23.95
2018-05-03T12:27:32.613Z,23.75
2018-05-03T12:30:00.038Z,23.42
2018-05-03T12:32:27.452Z,22.87
2018-05-03T12:34:54.903Z,22.76
2018-05-03T12:37:22.297Z,22.70
2018-05-03T12:39:49.719Z,22.75
2018-05-03T12:42:17.125Z,22.87
2018-05-03T12:44:44.564Z,23.01
2018-05-03T12:47:11.980Z,23.16
2018-05-03T12:49:39.388Z,23.33
2018-05-03T12:52:06.809Z,23.63
2018-05-03T12:54:34.228Z,23.80
2018-05-03T12:57:01.685Z,23.31
2018-05-03T12:59:29.129Z,23.15
2018-05-03T13:01:56.545Z,23.36
2018-05-03T13:04:23.956Z,23.41
2018-05-03T13:06:51.388Z,23.21
2018-05-03T13:09:18.796Z,23.21
2018-05-03T13:11:46.217Z,23.19
2018-05-03T13:14:13.725Z,23.42
2018-05-03T13:16:41.063Z,23.33
2018-05-03T13:19:08.477Z,23.39
2018-05-03T13:21:35.904Z,23.61
2018-05-03T13:24:03.338Z,23.83
2018-05-03T13:26:30.749Z,24.01
2018-05-03T13:28:58.167Z,23.79
2018-05-03T13:31:25.588Z,23.94
2018-05-03T13:33:53.006Z,24.17
2018-05-03T13:36:20.463Z,24.32
2018-05-03T13:38:47.880Z,24.33
2018-05-03T13:41:15.295Z,24.43
2018-05-03T13:43:42.714Z,24.43
2018-05-03T13:46:10.145Z,24.13
2018-05-03T13:48:37.556Z,23.99
2018-05-03T13:51:04.984Z,24.34
2018-05-03T13:53:32.394Z,24.44
2018-05-03T13:55:59.821Z,24.28
2018-05-03T13:58:27.237Z,24.17
2018-05-03T14:00:54.730Z,24.17
2018-05-03T14:03:22.073Z,23.99
2018-05-03T14:05:49.492Z,23.80
2018-05-03T14:08:16.911Z,23.70
2018-05-03T14:10:44.331Z,23.89
2018-05-03T14:13:11.745Z,23.97
2018-05-03T14:15:39.165Z,24.25
2018-05-03T14:18:06.577Z,24.23
2018-05-03T14:20:33.995Z,24.24
2018-05-03T14:23:01.408Z,24.21
2018-05-03T14:25:28.850Z,24.28
2018-05-03T14:27:56.283Z,24.29
2018-05-03T14:30:23.676Z,24.24
2018-05-03T14:32:51.096Z,23.90
2018-05-03T14:35:18.505Z,23.84
2018-05-03T14:37:45.929Z,23.89
2018-05-03T14:40:13.345Z,23.95
2018-05-03T14:42:40.769Z,24.01
2018-05-03T14:45:08.206Z,23.79
2018-05-03T14:47:35.637Z,23.42
2018-05-03T14:50:03.047Z,23.24
2018-05-03T14:52:30.471Z,23.22
2018-05-03T14:54:57.889Z,22.88
2018-05-03T14:57:25.300Z,22.59
2018-05-03T14:59:52.720Z,22.56
2018-05-03T15:02:20.137Z,22.29
2018-05-03T15:04:47.549Z,22.30
2018-05-03T15:07:14.984Z,22.25
2018-05-03T15:09:42.388Z,22.10
2018-05-03T15:12:09.813Z,21.92
2018-05-03T15:14:37.218Z,21.78
2018-05-03T15:17:04.632Z,21.81
2018-05-03T15:19:32.039Z,21.85
2018-05-03T15:21:59.448Z,21.99
2018-05-03T15:24:26.865Z,21.98
2018-05-03T15:26:54.280Z,22.05
2018-05-03T15:29:21.693Z,21.85
2018-05-03T15:31:49.125Z,21.61
2018-05-03T15:34:16.532Z,21.59
2018-05-03T15:36:43.953Z,21.52
2018-05-03T15:39:11.372Z,21.55
2018-05-03T15:41:38.788Z,21.55
2018-05-03T15:44:06.198Z,21.49
2018-05-03T15:46:33.612Z,21.34
2018-05-03T15:49:01.021Z,21.17
2018-05-03T15:51:28.463Z,21.07
2018-05-03T15:53:55.893Z,20.81
2018-05-03T15:56:23.296Z,20.72
2018-05-03T15:58:50.704Z,20.62
2018-05-03T16:01:18.142Z,20.55
2018-05-03T16:03:45.539Z,20.62
2018-05-03T16:06:12.945Z,20.42
2018-05-03T16:08:40.367Z,20.28
2018-05-03T16:11:07.763Z,20.33
2018-05-03T16:13:35.183Z,20.28
2018-05-03T16:16:02.585Z,20.09
2018-05-03T16:18:30.005Z,19.93
2018-05-03T16:20:57.404Z,19.83
2018-05-03T16:23:24.812Z,19.70
2018-05-03T16:25:52.216Z,19.53
2018-05-03T16:28:19.628Z,19.31
2018-05-03T16:30:47.057Z,19.22
2018-05-03T16:33:14.473Z,19.16
2018-05-03T16:35:41.876Z,19.22
2018-05-03T16:38:09.319Z,19.24
2018-05-03T16:40:36.728Z,19.26
2018-05-03T16:43:04.140Z,19.29
2018-05-03T16:45:31.561Z,19.21
2018-05-03T16:47:58.963Z,19.16
2018-05-03T16:50:26.380Z,19.28
2018-05-03T16:52:53.805Z,19.36
2018-05-03T16:55:21.209Z,19.27
2018-05-03T16:57:48.623Z,19.26
2018-05-03T17:00:16.028Z,19.33
2018-05-03T17:02:43.521Z,19.39
2018-05-03T17:05:10.929Z,19.46
2018-05-03T17:07:38.349Z,19.37
2018-05-03T17:10:05.753Z,19.13
2018-05-03T17:12:33.173Z,19.08
2018-05-03T17:15:00.576Z,18.95
2018-05-03T17:17:28.000Z,18.93
2018-05-03T17:19:55.405Z,18.92
2018-05-03T17:22:22.821Z,18.72
2018-05-03T17:24:50.241Z,18.69
2018-05-03T17:27:17.644Z,18.65
2018-05-03T17:29:45.057Z,18.62
2018-05-03T17:32:12.480Z,18.57
2018-05-03T17:34:39.884Z,18.61
2018-05-03T17:37:07.289Z,18.62
2018-05-03T17:39:34.707Z,18.65
2018-05-03T17:42:02.109Z,18.61
2018-05-03T17:44:29.605Z,18.57
2018-05-03T17:46:56.932Z,18.51
2018-05-03T17:49:24.348Z,18.50
2018-05-03T17:51:51.811Z,18.44
2018-05-03T17:54:19.172Z,18.35
2018-05-03T17:56:46.585Z,18.36
2018-05-03T17:59:14.002Z,18.33
2018-05-03T18:01:41.407Z,18.26
2018-05-03T18:04:08.833Z,18.25
2018-05-03T18:06:36.265Z,18.16
2018-05-03T18:09:03.674Z,18.02
2018-05-03T18:11:31.084Z,17.88
2018-05-03T18:13:58.500Z,17.84
2018-05-03T18:16:25.942Z,17.80
2018-05-03T18:18:53.332Z,17.75
2018-05-03T18:21:20.738Z,17.69
2018-05-03T18:23:48.154Z,17.63
2018-05-03T18:26:15.583Z,17.57
2018-05-03T18:28:42.979Z,17.55
2018-05-03T18:31:10.398Z,17.53
2018-05-03T18:33:37.821Z,17.47
2018-05-03T18:36:05.224Z,17.41
2018-05-03T18:38:32.652Z,17.33
2018-05-03T18:41:00.053Z,17.29
2018-05-03T18:43:27.472Z,17.22
2018-05-03T18:45:54.873Z,17.14
2018-05-03T18:48:22.280Z,17.09
2018-05-03T18:50:49.684Z,17.03
2018-05-03T18:53:17.099Z,16.97
2018-05-03T18:55:44.507Z,16.89
2018-05-03T18:58:11.924Z,16.81
2018-05-03T19:00:39.324Z,16.72
2018-05-03T19:03:06.736Z,16.64
2018-05-03T19:05:34.144Z,16.50
2018-05-03T19:08:01.561Z,16.42
2018-05-03T19:10:28.972Z,16.36
2018-05-03T19:12:56.415Z,16.26
2018-05-03T19:15:23.820Z,16.18
2018-05-03T19:17:51.231Z,16.11
2018-05-03T19:20:18.636Z,16.04
2018-05-03T19:22:46.046Z,15.95
2018-05-03T19:25:13.467Z,15.87
2018-05-03T19:27:40.901Z,15.81
2018-05-03T19:30:08.308Z,15.72
2018-05-03T19:32:35.768Z,15.64
2018-05-03T19:35:03.195Z,15.56
2018-05-03T19:37:30.587Z,15.47
2018-05-03T19:39:58.004Z,15.39
2018-05-03T19:42:25.409Z,15.29
2018-05-03T19:44:52.828Z,15.19
2018-05-03T19:47:20.236Z,15.07
2018-05-03T19:49:47.707Z,14.95
2018-05-03T19:52:15.052Z,14.85
2018-05-03T19:54:42.464Z,14.76
2018-05-03T19:57:09.873Z,14.66
2018-05-03T19:59:37.293Z,14.57
2018-05-03T20:02:04.695Z,14.48
2018-05-03T20:04:32.104Z,14.38
2018-05-03T20:06:59.521Z,14.27
2018-05-03T20:09:26.931Z,14.18
2018-05-03T20:11:54.342Z,14.09
2018-05-03T20:14:21.757Z,14.00
2018-05-03T20:16:49.161Z,13.91
2018-05-03T20:19:16.584Z,13.81
2018-05-03T20:21:43.995Z,13.71
2018-05-03T20:24:11.412Z,13.62
2018-05-03T20:26:38.814Z,13.56
2018-05-03T20:29:06.234Z,13.49
2018-05-03T20:31:33.632Z,13.40
2018-05-03T20:34:01.052Z,13.33
2018-05-03T20:36:28.457Z,13.27
2018-05-03T20:38:55.888Z,13.19
2018-05-03T20:41:23.293Z,13.13
2018-05-03T20:43:50.703Z,13.06
2018-05-03T20:46:18.108Z,13.01
2018-05-03T20:48:45.524Z,12.96
2018-05-03T20:51:12.933Z,12.91
2018-05-03T20:53:40.344Z,12.86
2018-05-03T20:56:07.756Z,12.83
2018-05-03T20:58:35.160Z,12.79
2018-05-03T21:01:02.586Z,12.73
2018-05-03T21:03:29.980Z,12.66
2018-05-03T21:05:57.394Z,12.58
2018-05-03T21:08:24.797Z,12.48
2018-05-03T21:10:52.213Z,12.39
2018-05-03T21:13:19.624Z,12.32
2018-05-03T21:15:47.070Z,12.27
2018-05-03T21:18:14.468Z,12.20
2018-05-03T21:20:41.888Z,12.12
2018-05-03T21:23:09.309Z,12.04
2018-05-03T21:25:36.733Z,11.98
2018-05-03T21:28:04.146Z,11.91
2018-05-03T21:30:31.556Z,11.85
2018-05-03T21:32:58.956Z,11.78
2018-05-03T21:35:26.379Z,11.72
2018-05-03T21:37:53.797Z,11.65
2018-05-03T21:40:21.195Z,11.61
2018-05-03T21:42:48.605Z,11.54
2018-05-03T21:45:16.018Z,11.48
2018-05-03T21:47:43.440Z,11.46
2018-05-03T21:50:10.848Z,11.43
2018-05-03T21:52:38.256Z,11.41
2018-05-03T21:55:05.668Z,11.36
2018-05-03T21:57:33.076Z,11.30
2018-05-03T22:00:00.493Z,11.25
2018-05-03T22:02:27.902Z,11.20
2018-05-03T22:04:55.308Z,11.12
2018-05-03T22:07:22.722Z,11.03
2018-05-03T22:09:50.141Z,10.99
2018-05-03T22:12:17.549Z,10.97
2018-05-03T22:14:44.959Z,10.94
2018-05-03T22:17:12.364Z,10.89
2018-05-03T22:19:39.775Z,10.85
2018-05-03T22:22:07.185Z,10.82
2018-05-03T22:24:34.606Z,10.81
2018-05-03T22:27:02.007Z,10.77
2018-05-03T22:29:29.416Z,10.68
2018-05-03T22:31:56.832Z,10.64
2018-05-03T22:34:24.237Z,10.59
2018-05-03T22:36:51.657Z,10.54
2018-05-03T22:39:19.069Z,10.50
2018-05-03T22:44:20.400Z,10.34
2018-05-03T22:46:47.817Z,10.28
2018-05-03T22:49:15.225Z,10.23
2018-05-03T22:51:42.642Z,10.18
2018-05-03T22:54:10.056Z,10.12
2018-05-03T22:56:37.464Z,10.05
2018-05-03T22:59:04.869Z,10.01
2018-05-03T23:01:32.277Z,9.98
2018-05-03T23:03:59.688Z,9.93
2018-05-03T23:06:27.100Z,9.88
2018-05-03T23:08:54.500Z,9.85
2018-05-03T23:11:21.913Z,9.79
2018-05-03T23:13:49.321Z,9.76
2018-05-03T23:16:16.732Z,9.72
2018-05-03T23:18:44.136Z,9.73
2018-05-03T23:21:11.549Z,9.70
2018-05-03T23:23:38.954Z,9.66
2018-05-03T23:26:06.365Z,9.63
2018-05-03T23:28:33.768Z,9.60
2018-05-03T23:31:01.184Z,9.55
2018-05-03T23:33:28.588Z,9.50
2018-05-03T23:35:56.006Z,9.44
2018-05-03T23:38:23.413Z,9.39
2018-05-03T23:40:50.829Z,9.35
2018-05-03T23:43:18.221Z,9.32
2018-05-03T23:45:45.632Z,9.26
2018-05-03T23:48:13.032Z,9.21
2018-05-03T23:50:40.469Z,9.19
2018-05-03T23:53:07.865Z,9.18
2018-05-03T23:55:35.275Z,9.18
2018-05-03T23:58:02.681Z,9.17
